createdAt,value
2018-12-04T00:00:28.114Z,2.90
2018-12-04T00:02:55.331Z,2.90
2018-12-04T00:05:22.577Z,3.03
2018-12-04T00:07:49.770Z,3.23
2018-12-04T00:10:16.981Z,3.60
2018-12-04T00:12:44.190Z,3.67
2018-12-04T00:15:11.403Z,3.70
2018-12-04T00:17:38.693Z,4.10
2018-12-04T00:20:06.317Z,4.13
2018-12-04T00:22:33.568Z,3.87
2018-12-04T00:25:00.791Z,4.07
2018-12-04T00:27:28.018Z,3.50
2018-12-04T00:29:55.238Z,4.07
2018-12-04T00:32:22.457Z,4.67
2018-12-04T00:34:49.669Z,4.77
2018-12-04T00:37:17.287Z,6.60
2018-12-04T00:39:44.588Z,4.73
2018-12-04T00:42:11.858Z,4.17
2018-12-04T00:44:39.082Z,4.30
2018-12-04T00:47:06.365Z,3.67
2018-12-04T00:49:33.588Z,3.73
2018-12-04T00:52:00.781Z,3.67
2018-12-04T00:54:28.081Z,3.60
2018-12-04T00:56:55.277Z,3.77
2018-12-04T00:59:22.478Z,4.00
2018-12-04T01:01:49.704Z,4.23
2018-12-04T01:04:17.018Z,4.77
2018-12-04T01:06:44.235Z,4.83
2018-12-04T01:09:11.518Z,4.80
2018-12-04T01:11:38.743Z,3.83
2018-12-04T01:14:05.967Z,4.00
2018-12-04T01:16:33.300Z,3.57
2018-12-04T01:19:00.601Z,3.40
2018-12-04T01:21:27.814Z,4.80
2018-12-04T01:23:55.066Z,2.90
2018-12-04T01:26:22.273Z,3.13
2018-12-04T01:28:49.477Z,2.40
2018-12-04T01:31:16.724Z,2.10
2018-12-04T01:33:43.966Z,1.40
2018-12-04T01:36:11.182Z,1.57
2018-12-04T01:38:38.383Z,1.33
2018-12-04T01:41:05.621Z,1.43
2018-12-04T01:43:32.846Z,1.80
2018-12-04T01:46:00.038Z,1.50
2018-12-04T01:48:27.261Z,1.47
2018-12-04T01:50:54.521Z,1.97
2018-12-04T01:53:21.741Z,1.00
2018-12-04T01:55:48.946Z,1.77
2018-12-04T01:58:16.231Z,1.60
2018-12-04T02:00:43.570Z,1.53
2018-12-04T02:03:10.774Z,1.50
2018-12-04T02:05:38.021Z,1.40
2018-12-04T02:08:05.221Z,1.20
2018-12-04T02:10:32.454Z,1.50
2018-12-04T02:12:59.725Z,1.20
2018-12-04T02:15:26.994Z,1.70
2018-12-04T02:17:54.245Z,1.00
2018-12-04T02:20:21.494Z,1.50
2018-12-04T02:22:48.697Z,1.30
2018-12-04T02:25:15.913Z,1.23
2018-12-04T02:27:43.197Z,1.50
2018-12-04T02:30:10.447Z,1.50
2018-12-04T02:32:37.774Z,1.33
2018-12-04T02:35:05.062Z,1.17
2018-12-04T02:37:32.280Z,1.63
2018-12-04T02:39:59.511Z,1.23
2018-12-04T02:42:26.716Z,1.20
2018-12-04T02:44:53.913Z,1.50
2018-12-04T02:47:21.205Z,1.43
2018-12-04T02:49:48.410Z,1.37
2018-12-04T02:52:15.696Z,1.10
2018-12-04T02:54:42.916Z,1.47
2018-12-04T02:57:10.167Z,2.07
2018-12-04T02:59:37.466Z,1.30
2018-12-04T03:02:04.702Z,1.33
2018-12-04T03:04:31.982Z,1.57
2018-12-04T03:06:59.181Z,1.40
2018-12-04T03:09:26.493Z,1.70
2018-12-04T03:11:53.751Z,1.30
2018-12-04T03:14:21.030Z,2.17
2018-12-04T03:16:48.225Z,1.60
2018-12-04T03:19:15.449Z,1.70
2018-12-04T03:21:42.672Z,1.20
2018-12-04T03:24:09.903Z,1.40
2018-12-04T03:26:37.126Z,1.80
2018-12-04T03:29:04.330Z,2.33
2018-12-04T03:31:31.614Z,2.73
2018-12-04T03:33:58.838Z,2.10
2018-12-04T03:36:26.119Z,2.13
2018-12-04T03:38:53.395Z,1.93
2018-12-04T03:41:20.646Z,2.17
2018-12-04T03:43:47.869Z,2.40
2018-12-04T03:46:15.114Z,2.40
2018-12-04T03:48:42.352Z,2.80
2018-12-04T03:51:09.654Z,3.40
2018-12-04T03:53:36.910Z,2.77
2018-12-04T03:56:04.297Z,3.07
2018-12-04T03:58:31.497Z,3.63
2018-12-04T04:00:58.702Z,4.30
2018-12-04T04:03:25.926Z,4.70
2018-12-04T04:05:53.209Z,6.13
2018-12-04T04:08:20.447Z,6.57
2018-12-04T04:10:47.754Z,7.07
2018-12-04T04:13:14.981Z,7.27
2018-12-04T04:15:42.273Z,7.70
2018-12-04T04:18:09.466Z,8.00
2018-12-04T04:20:36.768Z,7.43
2018-12-04T04:23:04.078Z,7.30
2018-12-04T04:25:31.286Z,7.50
2018-12-04T04:27:58.515Z,6.60
2018-12-04T04:30:25.722Z,6.43
2018-12-04T04:32:52.954Z,6.10
2018-12-04T04:35:20.183Z,6.20
2018-12-04T04:37:47.410Z,6.23
2018-12-04T04:40:14.734Z,6.50
2018-12-04T04:42:41.939Z,5.83
2018-12-04T04:45:09.199Z,5.10
2018-12-04T04:47:36.408Z,5.43
2018-12-04T04:50:04.005Z,4.87
2018-12-04T04:52:31.210Z,5.63
2018-12-04T04:54:58.501Z,5.07
2018-12-04T04:57:25.762Z,4.57
2018-12-04T04:59:52.983Z,4.67
2018-12-04T05:02:20.244Z,5.23
2018-12-04T05:04:47.481Z,4.80
2018-12-04T05:07:14.714Z,5.47
2018-12-04T05:09:41.955Z,5.50
2018-12-04T05:12:09.170Z,5.93
2018-12-04T05:14:36.394Z,6.03
2018-12-04T05:17:03.654Z,5.30
2018-12-04T05:19:30.870Z,5.57
2018-12-04T05:21:58.122Z,5.67
2018-12-04T05:24:25.367Z,5.60
2018-12-04T05:26:52.629Z,5.53
2018-12-04T05:29:19.830Z,5.10
2018-12-04T05:31:47.054Z,4.37
2018-12-04T05:34:14.314Z,5.77
2018-12-04T05:36:41.600Z,4.80
2018-12-04T05:39:08.822Z,5.73
2018-12-04T05:41:36.050Z,5.70
2018-12-04T05:44:03.290Z,5.57
2018-12-04T05:46:30.577Z,5.97
2018-12-04T05:48:57.778Z,6.07
2018-12-04T05:51:25.043Z,5.83
2018-12-04T05:53:52.330Z,5.27
2018-12-04T05:56:19.632Z,6.30
2018-12-04T05:58:46.966Z,5.70
2018-12-04T06:01:14.183Z,4.83
2018-12-04T06:03:41.446Z,4.47
2018-12-04T06:06:08.654Z,4.23
2018-12-04T06:08:35.861Z,3.83
2018-12-04T06:11:03.110Z,3.90
2018-12-04T06:13:30.374Z,3.70
2018-12-04T06:15:57.584Z,3.90
2018-12-04T06:18:24.797Z,3.20
2018-12-04T06:20:52.017Z,3.20
2018-12-04T06:23:19.238Z,2.87
2018-12-04T06:25:46.441Z,2.60
2018-12-04T06:28:13.673Z,2.90
2018-12-04T06:30:40.878Z,3.10
2018-12-04T06:33:08.186Z,2.90
2018-12-04T06:35:35.390Z,2.80
2018-12-04T06:38:02.605Z,2.30
2018-12-04T06:40:29.890Z,2.17
2018-12-04T06:42:57.112Z,2.00
2018-12-04T06:45:24.355Z,2.70
2018-12-04T06:47:51.600Z,2.83
2018-12-04T06:50:18.817Z,3.17
2018-12-04T06:52:46.041Z,4.77
2018-12-04T06:55:13.281Z,4.43
2018-12-04T06:57:40.573Z,4.80
2018-12-04T07:00:08.153Z,5.07
2018-12-04T07:02:35.437Z,5.40
2018-12-04T07:05:02.731Z,5.50
2018-12-04T07:07:30.008Z,6.30
2018-12-04T07:09:57.353Z,6.73
2018-12-04T07:12:24.555Z,7.43
2018-12-04T07:14:51.750Z,6.77
2018-12-04T07:17:18.971Z,5.77
2018-12-04T07:19:46.202Z,6.30
2018-12-04T07:22:13.404Z,5.47
2018-12-04T07:24:40.602Z,5.30
2018-12-04T07:27:07.817Z,4.57
2018-12-04T07:29:35.115Z,4.50
2018-12-04T07:32:02.329Z,3.87
2018-12-04T07:34:29.552Z,3.33
2018-12-04T07:36:56.766Z,2.90
2018-12-04T07:39:23.991Z,2.93
2018-12-04T07:41:51.228Z,3.07
2018-12-04T07:44:18.435Z,2.43
2018-12-04T07:46:45.725Z,2.30
2018-12-04T07:49:12.957Z,2.23
2018-12-04T07:51:40.283Z,2.17
2018-12-04T07:54:07.499Z,2.20
2018-12-04T07:56:34.803Z,2.33
2018-12-04T07:59:02.049Z,2.30
2018-12-04T08:01:29.334Z,1.90
2018-12-04T08:03:56.591Z,1.67
2018-12-04T08:06:23.894Z,1.47
2018-12-04T08:08:51.137Z,1.63
2018-12-04T08:11:18.406Z,1.87
2018-12-04T08:13:45.637Z,1.70
2018-12-04T08:16:12.922Z,1.43
2018-12-04T08:18:40.136Z,1.30
2018-12-04T08:21:07.399Z,1.93
2018-12-04T08:23:34.653Z,2.00
2018-12-04T08:26:01.861Z,1.87
2018-12-04T08:28:29.077Z,1.77
2018-12-04T08:30:56.277Z,1.47
2018-12-04T08:33:23.494Z,1.67
2018-12-04T08:35:50.704Z,2.10
2018-12-04T08:38:17.956Z,1.90
2018-12-04T08:40:45.173Z,1.80
2018-12-04T08:43:12.494Z,1.50
2018-12-04T08:45:39.722Z,2.07
2018-12-04T08:48:07.251Z,1.80
2018-12-04T08:50:34.478Z,2.70
2018-12-04T08:53:01.695Z,2.77
2018-12-04T08:55:28.902Z,3.47
2018-12-04T08:57:56.125Z,3.30
2018-12-04T09:00:23.470Z,3.53
2018-12-04T09:02:50.749Z,5.43
2018-12-04T09:05:18.083Z,5.37
2018-12-04T09:07:45.301Z,9.00
2018-12-04T09:10:12.625Z,9.07
2018-12-04T09:12:39.833Z,7.47
2018-12-04T09:15:07.166Z,5.70
2018-12-04T09:17:34.412Z,5.80
2018-12-04T09:20:01.645Z,5.87
2018-12-04T09:22:28.930Z,6.03
2018-12-04T09:24:56.231Z,4.97
2018-12-04T09:27:23.582Z,4.70
2018-12-04T09:29:50.858Z,5.03
2018-12-04T09:32:18.169Z,4.20
2018-12-04T09:34:45.374Z,3.67
2018-12-04T09:37:12.652Z,3.70
2018-12-04T09:39:39.941Z,4.27
2018-12-04T09:42:07.467Z,3.60
2018-12-04T09:44:34.665Z,3.90
2018-12-04T09:47:01.866Z,3.20
2018-12-04T09:49:29.139Z,3.30
2018-12-04T09:51:56.344Z,2.50
2018-12-04T09:54:23.541Z,2.97
2018-12-04T09:56:50.762Z,3.10
2018-12-04T09:59:18.030Z,2.63
2018-12-04T10:01:45.667Z,3.17
2018-12-04T10:04:12.903Z,2.30
2018-12-04T10:06:40.101Z,2.53
2018-12-04T10:09:07.802Z,2.23
2018-12-04T10:11:35.022Z,2.43
2018-12-04T10:14:02.381Z,2.40
2018-12-04T10:16:29.894Z,2.57
2018-12-04T10:18:57.099Z,2.20
2018-12-04T10:21:24.360Z,2.50
2018-12-04T10:23:51.578Z,2.87
2018-12-04T10:26:18.830Z,2.57
2018-12-04T10:28:46.026Z,2.40
2018-12-04T10:31:13.237Z,3.50
2018-12-04T10:33:40.613Z,3.90
2018-12-04T10:36:08.974Z,3.20
2018-12-04T10:38:36.450Z,4.10
2018-12-04T10:41:03.761Z,3.53
2018-12-04T10:43:30.994Z,3.40
2018-12-04T10:45:58.279Z,3.23
2018-12-04T10:48:25.478Z,5.00
2018-12-04T10:50:52.706Z,4.73
2018-12-04T10:53:19.954Z,2.50
2018-12-04T10:55:47.178Z,2.90
2018-12-04T10:58:14.397Z,2.60
2018-12-04T11:00:47.353Z,3.70
2018-12-04T11:03:14.653Z,2.60
2018-12-04T11:05:41.934Z,2.10
2018-12-04T11:08:09.185Z,2.17
2018-12-04T11:10:36.419Z,2.47
2018-12-04T11:13:03.694Z,2.40
2018-12-04T11:15:31.031Z,2.43
2018-12-04T11:17:58.270Z,3.17
2018-12-04T11:20:25.509Z,2.30
2018-12-04T11:22:52.757Z,2.43
2018-12-04T11:25:19.960Z,1.80
2018-12-04T11:27:47.270Z,1.83
2018-12-04T11:30:14.465Z,1.97
2018-12-04T11:32:41.669Z,1.80
2018-12-04T11:35:09.006Z,1.80
2018-12-04T11:37:36.274Z,1.90
2018-12-04T11:40:04.651Z,1.73
2018-12-04T11:42:31.862Z,2.10
2018-12-04T11:44:59.067Z,1.63
2018-12-04T11:47:26.314Z,2.03
2018-12-04T11:49:53.538Z,1.80
2018-12-04T11:52:20.738Z,1.93
2018-12-04T11:54:47.978Z,2.40
2018-12-04T11:57:15.186Z,2.10
2018-12-04T11:59:42.452Z,1.93
2018-12-04T12:02:10.912Z,2.33
2018-12-04T12:04:38.791Z,2.30
2018-12-04T12:07:05.991Z,2.00
2018-12-04T12:09:33.233Z,2.07
2018-12-04T12:12:00.487Z,2.00
2018-12-04T12:14:27.687Z,1.83
2018-12-04T12:16:54.903Z,1.80
2018-12-04T12:19:22.117Z,2.20
2018-12-04T12:21:49.345Z,1.93
2018-12-04T12:24:16.537Z,1.90
2018-12-04T12:26:43.765Z,2.07
2018-12-04T12:29:11.009Z,2.53
2018-12-04T12:31:38.229Z,2.30
2018-12-04T12:34:05.478Z,2.13
2018-12-04T12:36:32.774Z,2.17
2018-12-04T12:38:59.997Z,3.07
2018-12-04T12:41:27.233Z,2.30
2018-12-04T12:43:54.537Z,1.90
2018-12-04T12:46:21.747Z,2.63
2018-12-04T12:48:48.965Z,3.90
2018-12-04T12:51:16.238Z,3.03
2018-12-04T12:53:43.549Z,5.93
2018-12-04T12:56:10.810Z,3.50
2018-12-04T12:58:38.123Z,3.77
2018-12-04T13:01:05.439Z,4.63
2018-12-04T13:03:32.661Z,3.80
2018-12-04T13:05:59.902Z,3.63
2018-12-04T13:08:27.137Z,3.50
2018-12-04T13:10:54.349Z,4.20
2018-12-04T13:13:21.559Z,2.97
2018-12-04T13:15:48.864Z,3.33
2018-12-04T13:18:16.152Z,3.33
2018-12-04T13:20:43.427Z,2.70
2018-12-04T13:23:10.656Z,2.67
2018-12-04T13:25:37.931Z,2.70
2018-12-04T13:28:05.226Z,2.63
2018-12-04T13:30:32.562Z,2.30
2018-12-04T13:32:59.896Z,2.17
2018-12-04T13:35:27.232Z,2.47
2018-12-04T13:37:54.456Z,2.60
2018-12-04T13:40:21.750Z,2.53
2018-12-04T13:42:48.999Z,2.40
2018-12-04T13:45:16.232Z,2.37
2018-12-04T13:47:43.579Z,2.30
2018-12-04T13:50:10.918Z,2.60
2018-12-04T13:52:38.233Z,2.10
2018-12-04T13:55:05.666Z,2.07
2018-12-04T13:57:32.941Z,2.00
2018-12-04T14:00:00.223Z,2.37
2018-12-04T14:02:27.509Z,1.93
2018-12-04T14:04:54.795Z,2.17
2018-12-04T14:07:22.138Z,2.03
2018-12-04T14:09:49.440Z,2.10
2018-12-04T14:12:16.734Z,2.50
2018-12-04T14:14:43.977Z,1.87
2018-12-04T14:17:11.326Z,1.60
2018-12-04T14:19:38.548Z,2.30
2018-12-04T14:22:05.861Z,2.10
2018-12-04T14:24:33.124Z,1.97
2018-12-04T14:27:00.429Z,2.00
2018-12-04T14:29:27.694Z,2.20
2018-12-04T14:31:55.022Z,2.33
2018-12-04T14:34:22.285Z,2.37
2018-12-04T14:36:49.560Z,1.87
2018-12-04T14:39:16.916Z,2.10
2018-12-04T14:41:44.175Z,2.53
2018-12-04T14:44:11.399Z,2.10
2018-12-04T14:46:38.715Z,2.33
2018-12-04T14:49:06.027Z,1.87
2018-12-04T14:51:33.266Z,2.23
2018-12-04T14:54:00.625Z,1.93
2018-12-04T14:56:27.929Z,2.07
2018-12-04T14:58:55.245Z,3.70
2018-12-04T15:01:22.578Z,7.30
2018-12-04T15:03:50.148Z,7.17
2018-12-04T15:06:17.437Z,4.00
2018-12-04T15:08:44.651Z,5.43
2018-12-04T15:11:11.971Z,5.10
2018-12-04T15:13:39.257Z,4.93
2018-12-04T15:16:06.655Z,5.03
2018-12-04T15:18:33.971Z,3.60
2018-12-04T15:21:01.250Z,2.83
2018-12-04T15:23:28.553Z,4.10
2018-12-04T15:25:55.892Z,4.73
2018-12-04T15:28:23.131Z,3.00
2018-12-04T15:30:50.428Z,3.13
2018-12-04T15:33:17.747Z,5.57
2018-12-04T15:35:44.949Z,4.90
2018-12-04T15:38:12.242Z,5.67
2018-12-04T15:40:39.485Z,4.43
2018-12-04T15:43:06.757Z,3.30
2018-12-04T15:45:33.962Z,2.97
2018-12-04T15:48:01.190Z,5.20
2018-12-04T15:50:28.497Z,4.23
2018-12-04T15:52:55.726Z,3.90
2018-12-04T15:55:23.039Z,3.43
2018-12-04T15:57:50.345Z,3.50
2018-12-04T16:00:17.545Z,3.53
2018-12-04T16:02:44.779Z,3.93
2018-12-04T16:05:12.026Z,3.70
2018-12-04T16:07:39.249Z,3.77
2018-12-04T16:10:08.906Z,3.63
2018-12-04T16:12:36.120Z,6.33
2018-12-04T16:15:03.437Z,5.73
2018-12-04T16:17:30.645Z,6.13
2018-12-04T16:19:57.849Z,6.00
2018-12-04T16:22:25.155Z,5.50
2018-12-04T16:24:52.438Z,4.40
2018-12-04T16:27:19.663Z,4.77
2018-12-04T16:29:46.956Z,5.20
2018-12-04T16:32:14.181Z,4.40
2018-12-04T16:34:41.385Z,14.37
2018-12-04T16:37:08.605Z,20.10
2018-12-04T16:39:35.851Z,6.50
2018-12-04T16:42:03.077Z,8.73
2018-12-04T16:44:30.357Z,5.40
2018-12-04T16:46:57.566Z,5.33
2018-12-04T16:49:24.877Z,5.30
2018-12-04T16:51:52.098Z,4.60
2018-12-04T16:54:19.299Z,4.37
2018-12-04T16:56:46.522Z,5.27
2018-12-04T16:59:13.754Z,5.47
2018-12-04T17:01:40.994Z,5.57
2018-12-04T17:04:08.237Z,5.10
2018-12-04T17:06:35.453Z,4.57
2018-12-04T17:09:02.681Z,4.63
2018-12-04T17:11:29.917Z,4.97
2018-12-04T17:13:57.114Z,5.20
2018-12-04T17:16:24.318Z,5.63
2018-12-04T17:18:51.677Z,6.50
2018-12-04T17:21:18.986Z,7.07
2018-12-04T17:23:46.197Z,5.87
2018-12-04T17:26:13.552Z,6.13
2018-12-04T17:28:40.792Z,6.30
2018-12-04T17:31:08.085Z,6.67
2018-12-04T17:33:35.338Z,6.83
2018-12-04T17:36:02.680Z,6.40
2018-12-04T17:38:29.954Z,7.77
2018-12-04T17:40:57.174Z,7.47
2018-12-04T17:43:24.418Z,7.10
2018-12-04T17:45:51.674Z,6.87
2018-12-04T17:48:19.037Z,7.30
2018-12-04T17:50:46.348Z,8.03
2018-12-04T17:53:13.550Z,10.20
2018-12-04T17:55:40.776Z,9.17
2018-12-04T17:58:08.034Z,6.63
2018-12-04T18:00:35.290Z,7.37
2018-12-04T18:03:02.501Z,7.50
2018-12-04T18:05:29.734Z,8.40
2018-12-04T18:07:56.946Z,8.10
2018-12-04T18:10:24.165Z,8.50
2018-12-04T18:12:51.374Z,9.33
2018-12-04T18:15:18.598Z,10.23
2018-12-04T18:17:45.834Z,10.03
2018-12-04T18:20:13.057Z,9.43
2018-12-04T18:22:40.390Z,9.43
2018-12-04T18:25:07.692Z,8.53
2018-12-04T18:27:34.934Z,7.30
2018-12-04T18:30:02.174Z,7.93
2018-12-04T18:32:29.381Z,8.00
2018-12-04T18:34:56.650Z,8.40
2018-12-04T18:37:23.853Z,8.27
2018-12-04T18:39:51.194Z,8.93
2018-12-04T18:42:18.474Z,21.87
2018-12-04T18:44:45.713Z,16.17
2018-12-04T18:47:12.934Z,11.70
2018-12-04T18:49:40.217Z,11.00
2018-12-04T18:52:07.465Z,12.50
2018-12-04T18:54:34.674Z,11.77
2018-12-04T18:57:01.894Z,14.37
2018-12-04T18:59:29.107Z,14.87
2018-12-04T19:01:56.478Z,13.10
2018-12-04T19:04:23.705Z,11.90
2018-12-04T19:06:50.977Z,10.83
2018-12-04T19:09:18.214Z,10.20
2018-12-04T19:11:45.425Z,10.30
2018-12-04T19:14:12.686Z,10.40
2018-12-04T19:16:40.003Z,8.27
2018-12-04T19:19:07.267Z,9.77
2018-12-04T19:24:37.253Z,11.70
2018-12-04T19:27:04.631Z,11.90
2018-12-04T19:29:31.958Z,10.20
2018-12-04T19:31:59.178Z,10.23
2018-12-04T19:34:26.408Z,10.20
2018-12-04T19:36:53.663Z,10.43
2018-12-04T19:39:22.166Z,11.13
2018-12-04T19:41:49.373Z,11.37
2018-12-04T19:44:16.589Z,11.17
2018-12-04T19:46:43.821Z,10.30
2018-12-04T19:49:11.058Z,9.90
2018-12-04T19:51:38.293Z,10.20
2018-12-04T19:54:05.566Z,9.40
2018-12-04T19:56:32.798Z,10.37
2018-12-04T19:59:00.054Z,9.43
2018-12-04T20:01:27.278Z,10.03
2018-12-04T20:03:54.558Z,9.57
2018-12-04T20:06:21.766Z,9.43
2018-12-04T20:08:52.125Z,10.00
2018-12-04T20:11:19.622Z,9.67
2018-12-04T20:13:46.894Z,8.90
2018-12-04T20:16:14.122Z,9.13
2018-12-04T20:18:41.330Z,9.07
2018-12-04T20:21:08.566Z,9.57
2018-12-04T20:23:35.819Z,10.10
2018-12-04T20:26:03.436Z,9.23
2018-12-04T20:28:30.650Z,9.57
2018-12-04T20:30:57.887Z,10.13
2018-12-04T20:33:25.174Z,10.90
2018-12-04T20:35:53.267Z,10.77
2018-12-04T20:38:20.518Z,9.70
2018-12-04T20:40:47.758Z,10.10
2018-12-04T20:43:14.994Z,10.03
2018-12-04T20:45:42.414Z,10.40
2018-12-04T20:48:09.669Z,9.70
2018-12-04T20:50:36.902Z,9.07
2018-12-04T20:53:04.381Z,9.03
2018-12-04T20:55:31.611Z,9.23
2018-12-04T20:57:58.874Z,9.37
2018-12-04T21:00:26.113Z,9.97
2018-12-04T21:02:53.354Z,11.03
2018-12-04T21:05:20.570Z,10.07
2018-12-04T21:07:48.034Z,10.70
2018-12-04T21:10:15.238Z,9.97
2018-12-04T21:12:42.466Z,10.10
2018-12-04T21:15:09.705Z,9.83
2018-12-04T21:17:37.017Z,10.07
2018-12-04T21:20:04.809Z,10.20
2018-12-04T21:22:32.058Z,9.47
2018-12-04T21:24:59.265Z,9.80
2018-12-04T21:27:32.449Z,10.37
2018-12-04T21:30:05.374Z,10.13
2018-12-04T21:32:38.274Z,9.83
2018-12-04T21:35:11.141Z,10.77
2018-12-04T21:37:44.158Z,10.87
2018-12-04T21:40:17.145Z,10.87
2018-12-04T21:42:50.214Z,10.43
2018-12-04T21:45:23.070Z,11.50
2018-12-04T21:47:55.190Z,11.90
2018-12-04T21:50:22.477Z,10.77
2018-12-04T21:52:49.710Z,12.03
2018-12-04T21:55:16.974Z,14.33
2018-12-04T21:57:44.251Z,13.10
2018-12-04T22:00:11.591Z,11.77
2018-12-04T22:02:38.891Z,11.60
2018-12-04T22:05:06.165Z,10.80
2018-12-04T22:07:33.438Z,11.03
2018-12-04T22:10:00.681Z,10.40
2018-12-04T22:12:27.942Z,10.13
2018-12-04T22:14:55.173Z,10.60
2018-12-04T22:17:22.422Z,10.90
2018-12-04T22:19:49.666Z,9.87
2018-12-04T22:22:16.985Z,10.17
2018-12-04T22:24:44.211Z,10.20
2018-12-04T22:27:11.481Z,10.33
2018-12-04T22:29:38.724Z,10.87
2018-12-04T22:32:05.945Z,9.90
2018-12-04T22:34:33.184Z,11.10
2018-12-04T22:37:00.406Z,10.90
2018-12-04T22:39:27.641Z,10.60
2018-12-04T22:41:54.953Z,10.60
2018-12-04T22:44:22.174Z,10.83
2018-12-04T22:46:49.576Z,10.83
2018-12-04T22:49:16.905Z,11.20
2018-12-04T22:51:44.199Z,12.37
2018-12-04T22:54:11.450Z,13.53
2018-12-04T22:56:38.690Z,12.70
2018-12-04T22:59:05.932Z,14.80
2018-12-04T23:01:37.899Z,14.37
2018-12-04T23:04:06.474Z,14.10
2018-12-04T23:06:33.722Z,13.30
2018-12-04T23:09:00.990Z,14.03
2018-12-04T23:11:28.267Z,14.17
2018-12-04T23:13:55.521Z,12.63
2018-12-04T23:16:22.854Z,13.43
2018-12-04T23:18:50.095Z,12.90
2018-12-04T23:21:17.364Z,13.27
2018-12-04T23:23:44.671Z,13.87
2018-12-04T23:26:11.913Z,14.37
2018-12-04T23:28:39.192Z,13.13
2018-12-04T23:31:06.458Z,14.33
2018-12-04T23:33:33.718Z,14.43
2018-12-04T23:36:00.948Z,14.47
2018-12-04T23:38:28.213Z,15.30
2018-12-04T23:40:55.441Z,14.70
2018-12-04T23:43:22.665Z,15.23
2018-12-04T23:45:49.926Z,15.03
2018-12-04T23:48:17.178Z,14.70
2018-12-04T23:50:44.425Z,13.87
2018-12-04T23:53:11.678Z,13.63
2018-12-04T23:55:38.917Z,13.87
2018-12-04T23:58:06.239Z,12.67
